AirNav   Air Wisconsin Up To $57,000 Bonus
 
 442 users online  

MN43 Welia Health Heliport
Mora, Minnesota, USA

GOING TO MORA?


FAA INFORMATION EFFECTIVE 15 JULY 2021

Location

FAA Identifier: MN43
Lat/Long: 45-52-27.8510N 093-17-23.8050W
45-52.464183N 093-17.396750W
45.8744031,-93.2899458
(estimated)
Elevation: 1005 ft. / 306 m (estimated)
Variation: 02E (1985)
Time zone: UTC -5 (UTC -6 during Standard Time)
Zip code: 55051

Heliport Operations

Heliport use: Private use, MEDICAL USE.
Activation date: 11/1991
Control tower: no
ARTCC: MINNEAPOLIS CENTER
FSS: PRINCETON FLIGHT SERVICE STATION
Attendance: CONTINUOUS
Wind indicator: no
Segmented circle: no
Lights: FOR PERIMETER AND OBSTN LGTS CALL 320-679-1212.

Heliport Communications

WX AWOS-3 at JMR (1.3 nm NE): 123.925 (320-679-1629)
WX AWOS-3 at ROS (18 nm SE): 118.8 (320-358-3339)
WX AWOS-3 at 04W (19 nm NE): 118.225 (320-384-6169)
WX AWOS-3 at CBG (19 nm S): 121.125 (763-689-9562)

Nearby radio navigation aids

VOR radial/distance  VOR name  Freq  Var
STCr056/37.7ST CLOUD VOR/DME112.1003E

 
NDB name  Hdg/Dist  Freq  Var  ID
RUSH CITY305/17.728202EROS .-. --- ...
PRINCETON033/22.936803EPNM .--. -. --
BIG DOCTOR276/38.720301WBXR -... -..- .-.

Heliport Services

Runway Information

Helipad H1

Dimensions: 50 x 50 ft. / 15 x 15 m
Surface: concrete
Runway edge lights: PERI
Latitude: 45-52.464183N
Longitude: 093-17.396750W
Elevation: 1005.0 ft.
Traffic pattern: leftleft

Heliport Ownership and Management from official FAA records

Ownership: Privately-owned
Owner: WELIA HEALTH
301 S. HWY 65
MORA, MN 55051
Phone 320-679-1212
Manager: FACILITY OPERATIONS MANAGER
301 S. HWY 65, ATTN: MARK VIZENOR
MORA, MN 55051
Phone 320-225-3475

Additional Remarks

E111-1 ALL APCH/DEP OPNS CONDUCTED 025 DEG TO 045 DEG AND/TO FM 165 DEG FM CNTR OF PAD; TKOF/LNDG AREA MKD; NON-OBSTRUCTION WIND INDICATOR MAINTAINED NEXT TO TKOF/LNDG AREA.
A52-H1 25 FT BLDG 275 FT WEST.
FOR CD CTC MINNEAPOLIS ARTCC AT 651-463-5588.

Instrument Procedures

There are no published instrument procedures at MN43.

Some nearby airports with instrument procedures:

KJMR - Mora Municipal Airport (1 nm NE)
KROS - Rush City Regional Airport (18 nm SE)
04W - Field of Dreams Airport (19 nm NE)
KCBG - Cambridge Municipal Airport (19 nm S)
KPNM - Princeton Municipal Airport (23 nm SW)
 
Loc | Ops | Rwys | IFR | FBO | Links
Com | Nav | Svcs | Stats | Notes
Area around MN43 (Welia Health Heliport)
 
Road maps at: MapQuest Bing Google
 
Aerial photo
No photo
 
Sectional chart

 
Airport distance calculator
Flying to Welia Health Heliport? Find the distance to fly.

From to MN43

Sunrise and sunset
Times for 28-Jul-2021
 Local
(UTC-5)
 Zulu
(UTC)
Morning civil twilight05:1710:17
Sunrise05:5210:52
Sunset20:4701:47
Evening civil twilight21:2202:22

Current date and time
Zulu (UTC)  28-Jul-2021 06:17:12
Local (UTC-5)  28-Jul-2021 01:17:12
 
METAR
KJMR 280555Z AUTO 10003KT 10SM CLR 21/20 A3001 RMK AO2
KROS 
18nm SE 
280603Z AUTO 08003KT 10SM CLR 21/20 A3000 RMK AO2
KCBG 
18nm S 
280555Z AUTO 11005KT 10SM CLR 25/19 A2998 RMK AO2
K04W 
19nm NE 
280555Z AUTO 00000KT 10SM CLR 21/20 A3001 RMK AO2
TAF
KSTC 
37nm SW 
280520Z 2806/2906 10004KT P6SM FEW250 TEMPO 2810/2812 6SM -RA BKN050 FM281400 17010KT P6SM SCT150 FM290100 35004KT P6SM OVC250
NOTAMs
Click for the latest NOTAMs
NOTAMs are issued by the DoD/FAA and will open in a separate window not controlled by AirNav.

 

 
 

Would you like to see your business listed on this page?

 If your business provides an interesting product or service to pilots, flight crews, aircraft, or users of the Welia Health Heliport, you should consider listing it here.  To start the listing process, click on the button below
 
Add a business
 

Other Pages about Welia Health Heliport

Update a link
 
Copyright © AirNav, LLC. All rights reserved. Privacy Policy  Contact